Time;durP1;ratioP1;P1;durP2;ratioP2;P2;SDS_P1;SDS_P2;PMS_P1;PMS_P2;Temp;Humidity;BMP_temperature;BMP_pressure;BME280_temperature;BME280_humidity;BME280_pressure;Samples;Min_cycle;Max_cycle;Signal;HPM_P1;HPM_P2
2022/01/14 00:02:02;;;;;;;88.67;20.53;;;;;;;1.80;100.00;103772.25;5046302;28;20033;-61
2022/01/14 00:04:28;;;;;;;65.03;19.80;;;;;;;1.79;100.00;103767.91;5056157;28;20049;-61
2022/01/14 00:06:53;;;;;;;60.40;20.67;;;;;;;1.73;100.00;103772.38;5047343;28;20040;-61
2022/01/14 00:09:19;;;;;;;62.23;19.77;;;;;;;1.79;100.00;103770.53;5049382;28;20040;-61
2022/01/14 00:11:53;;;;;;;61.03;19.80;;;;;;;1.74;100.00;103768.03;5052864;28;20037;-60
2022/01/14 00:14:22;;;;;;;41.70;19.27;;;;;;;1.69;100.00;103770.72;5042757;28;20103;-61
2022/01/14 00:16:48;;;;;;;52.10;18.00;;;;;;;1.68;100.00;103774.22;5049627;28;20037;-61
2022/01/14 00:19:14;;;;;;;62.17;18.50;;;;;;;1.63;100.00;103762.13;5044954;28;20040;-59
2022/01/14 00:21:41;;;;;;;60.80;18.80;;;;;;;1.62;100.00;103761.25;5041848;28;20043;-61
2022/01/14 00:32:09;;;;;;;61.93;18.43;;;;;;;1.63;100.00;103752.50;5049237;28;20041;-60
2022/01/14 00:34:34;;;;;;;62.97;18.40;;;;;;;1.57;100.00;103750.03;5038314;28;20319;-61
2022/01/14 00:37:00;;;;;;;48.47;18.13;;;;;;;1.59;100.00;103758.72;5042416;28;20499;-61
2022/01/14 00:39:26;;;;;;;53.03;18.87;;;;;;;1.57;100.00;103744.78;5049345;28;20029;-60
2022/01/14 00:41:51;;;;;;;53.77;18.60;;;;;;;1.61;100.00;103749.06;5051734;28;20029;-61
2022/01/14 00:44:17;;;;;;;46.17;18.33;;;;;;;1.57;100.00;103750.03;5040677;28;20064;-61
2022/01/14 00:46:44;;;;;;;69.13;18.23;;;;;;;1.53;100.00;103730.06;5049944;28;20025;-60
2022/01/14 00:49:10;;;;;;;55.53;17.03;;;;;;;1.55;100.00;103733.50;5037614;28;20071;-61
2022/01/14 00:51:36;;;;;;;43.40;17.73;;;;;;;1.53;100.00;103724.84;5044412;28;20464;-60
2022/01/14 00:54:05;;;;;;;46.53;17.93;;;;;;;1.52;100.00;103720.50;5045832;28;21497;-61
2022/01/14 00:56:44;;;;;;;50.90;18.23;;;;;;;1.52;100.00;103715.28;5037908;28;20036;-60
2022/01/14 00:59:14;;;;;;;45.47;17.37;;;;;;;1.52;100.00;103704.81;5051123;28;20055;-61
2022/01/14 01:01:42;;;;;;;51.80;17.50;;;;;;;1.46;100.00;103696.19;5044663;28;20035;-61
2022/01/14 01:04:08;;;;;;;38.43;17.73;;;;;;;1.51;100.00;103700.44;5047410;28;20153;-61
2022/01/14 01:06:33;;;;;;;48.57;17.10;;;;;;;1.54;100.00;103697.78;5049702;28;20112;-60
2022/01/14 01:08:59;;;;;;;56.93;18.13;;;;;;;1.48;100.00;103697.00;5041250;28;20104;-61
2022/01/14 01:11:29;;;;;;;56.80;17.30;;;;;;;1.46;100.00;103705.78;5048831;28;20083;-61
2022/01/14 01:16:48;;;;;;;44.13;16.77;;;;;;;1.45;100.00;103699.72;5043171;28;20052;-61
2022/01/14 01:19:14;;;;;;;46.73;17.37;;;;;;;1.45;100.00;103694.47;5054588;28;20038;-61
2022/01/14 01:21:40;;;;;;;48.63;16.40;;;;;;;1.44;100.00;103692.72;5055079;28;20122;-60
2022/01/14 01:24:08;;;;;;;56.77;17.47;;;;;;;1.42;100.00;103684.06;5056958;28;20037;-61
2022/01/14 01:26:37;;;;;;;79.87;16.20;;;;;;;1.48;100.00;103688.28;5053885;28;20086;-61
2022/01/14 01:29:28;;;;;;;64.37;16.60;;;;;;;1.40;100.00;103685.84;5051851;28;20717;-60
2022/01/14 01:31:49;;;;;;;64.97;15.30;;;;;;;1.38;100.00;103687.63;5049655;28;20045;-61
2022/01/14 01:34:18;;;;;;;53.80;16.40;;;;;;;1.31;100.00;103680.78;5054904;28;20039;-61
2022/01/14 01:36:47;;;;;;;89.60;16.37;;;;;;;1.29;100.00;103688.66;5054295;28;20183;-61
2022/01/14 01:39:15;;;;;;;73.80;15.37;;;;;;;1.38;100.00;103698.06;5040179;28;20029;-61
2022/01/14 01:41:44;;;;;;;60.53;14.90;;;;;;;1.25;100.00;103696.59;5056353;28;20039;-61
2022/01/14 01:44:10;;;;;;;53.50;15.20;;;;;;;1.24;100.00;103695.75;5052127;28;20488;-60
2022/01/14 01:46:40;;;;;;;55.57;15.40;;;;;;;1.24;100.00;103687.03;5050824;28;20021;-60
2022/01/14 01:49:08;;;;;;;62.37;14.73;;;;;;;1.28;100.00;103680.88;5054520;28;20481;-61
2022/01/14 01:51:34;;;;;;;66.37;14.83;;;;;;;1.23;100.00;103678.31;5054616;28;20126;-61
2022/01/14 01:53:59;;;;;;;42.83;16.17;;;;;;;1.19;100.00;103676.69;5049775;28;20068;-60
2022/01/14 01:56:24;;;;;;;59.50;16.53;;;;;;;1.18;100.00;103680.19;5053538;28;20040;-61
2022/01/14 01:58:50;;;;;;;55.67;15.20;;;;;;;1.20;100.00;103686.25;5053756;28;20044;-61
2022/01/14 02:01:16;;;;;;;44.47;14.90;;;;;;;1.17;100.00;103688.91;5044873;28;20767;-62
2022/01/14 02:03:41;;;;;;;35.50;15.23;;;;;;;1.18;100.00;103686.25;5051259;28;20099;-61
2022/01/14 02:06:07;;;;;;;44.00;14.80;;;;;;;1.19;100.00;103677.53;5046192;28;20076;-61
2022/01/14 02:08:33;;;;;;;57.63;14.40;;;;;;;1.23;100.00;103680.09;5054755;28;20048;-61
2022/01/14 02:10:59;;;;;;;68.37;14.50;;;;;;;1.18;100.00;103680.19;5052494;28;20190;-60
2022/01/14 02:13:26;;;;;;;58.83;14.67;;;;;;;1.17;100.00;103678.44;5056072;28;20480;-61
2022/01/14 02:16:15;;;;;;;69.10;14.40;;;;;;;1.13;100.00;103682.88;5050594;28;20116;-61
2022/01/14 02:18:48;;;;;;;55.77;14.17;;;;;;;1.11;100.00;103674.22;5053062;28;20033;-60
2022/01/14 02:24:21;;;;;;;51.97;13.60;;;;;;;1.05;100.00;103674.31;5053631;28;20130;-61
2022/01/14 02:26:52;;;;;;;67.37;15.40;;;;;;;1.04;100.00;103667.38;5050949;28;20074;-61
2022/01/14 02:29:18;;;;;;;42.10;14.77;;;;;;;1.05;100.00;103663.88;5053045;28;20024;-60
2022/01/14 02:31:44;;;;;;;53.10;14.37;;;;;;;1.01;100.00;103662.19;5044837;28;20424;-61
2022/01/14 02:34:12;;;;;;;47.27;14.40;;;;;;;0.99;100.00;103650.91;5050324;28;20025;-60
2022/01/14 02:36:40;;;;;;;59.77;14.07;;;;;;;0.96;100.00;103645.72;5051897;28;20040;-61
2022/01/14 02:39:06;;;;;;;49.87;15.53;;;;;;;0.97;100.00;103644.84;5052119;28;20047;-60
2022/01/14 02:41:37;;;;;;;50.40;15.13;;;;;;;0.96;100.00;103632.66;5047707;28;20476;-60
2022/01/14 02:44:05;;;;;;;35.63;15.07;;;;;;;1.01;100.00;103641.28;5050093;28;20032;-60
2022/01/14 02:46:37;;;;;;;43.50;15.03;;;;;;;1.02;100.00;103648.22;5049667;28;20082;-60
2022/01/14 02:49:03;;;;;;;62.27;14.23;;;;;;;1.01;100.00;103656.97;5047623;28;20461;-60
2022/01/14 02:51:28;;;;;;;50.87;14.07;;;;;;;1.00;100.00;103650.03;5049106;28;20033;-61
2022/01/14 02:53:59;;;;;;;37.67;14.20;;;;;;;1.01;100.00;103646.50;5046628;28;20504;-59
2022/01/14 02:56:30;;;;;;;52.97;15.13;;;;;;;1.01;100.00;103641.28;5052207;28;20041;-61
2022/01/14 02:58:59;;;;;;;45.43;14.10;;;;;;;0.96;100.00;103637.88;5050460;28;20732;-60
2022/01/14 03:01:26;;;;;;;34.73;13.30;;;;;;;0.97;100.00;103647.44;5047645;28;20059;-61
2022/01/14 03:03:58;;;;;;;50.80;13.17;;;;;;;0.92;100.00;103643.19;5046010;28;20504;-61
2022/01/14 03:06:25;;;;;;;30.33;13.10;;;;;;;0.93;100.00;103644.03;5045942;28;20041;-61
2022/01/14 03:08:50;;;;;;;43.53;13.83;;;;;;;0.94;100.00;103646.63;5051122;28;20025;-61
2022/01/14 03:11:23;;;;;;;38.27;12.57;;;;;;;0.92;100.00;103648.41;5049003;28;20035;-61
2022/01/14 03:13:48;;;;;;;56.17;14.40;;;;;;;0.94;100.00;103649.25;5050997;28;20182;-61
2022/01/14 03:16:18;;;;;;;45.67;13.17;;;;;;;0.91;100.00;103638.88;5051923;28;20515;-61
2022/01/14 03:18:47;;;;;;;81.40;13.47;;;;;;;0.88;100.00;103633.69;5049554;28;20352;-60
2022/01/14 03:21:14;;;;;;;38.57;12.83;;;;;;;0.90;100.00;103650.19;5052233;28;20557;-61
2022/01/14 03:23:52;;;;;;;61.83;12.53;;;;;;;0.92;100.00;103653.66;5051957;28;20477;-61
2022/01/14 03:26:19;;;;;;;42.87;13.63;;;;;;;0.88;100.00;103645.91;5051946;28;20096;-59
2022/01/14 03:28:46;;;;;;;53.13;13.53;;;;;;;0.89;100.00;103642.38;5050182;28;20112;-61
2022/01/14 03:31:11;;;;;;;58.10;13.47;;;;;;;0.92;100.00;103648.41;5048772;28;20524;-60
2022/01/14 03:33:37;;;;;;;65.73;13.83;;;;;;;0.90;100.00;103639.72;5049707;28;20036;-61
2022/01/14 03:36:04;;;;;;;47.30;13.93;;;;;;;0.93;100.00;103644.91;5039477;28;20033;-60
2022/01/14 03:38:30;;;;;;;45.37;13.73;;;;;;;0.90;100.00;103644.94;5047875;28;20048;-60
2022/01/14 03:40:55;;;;;;;49.57;15.03;;;;;;;0.86;100.00;103635.47;5046605;28;20396;-61
2022/01/14 03:43:21;;;;;;;52.57;14.47;;;;;;;0.90;100.00;103634.50;5045023;28;20037;-61
2022/01/14 03:45:49;;;;;;;54.37;13.87;;;;;;;0.93;100.00;103634.47;5057690;28;20392;-60
2022/01/14 03:48:14;;;;;;;61.57;14.53;;;;;;;0.93;100.00;103628.34;5047756;28;20060;-61
2022/01/14 03:50:40;;;;;;;66.03;14.30;;;;;;;0.88;100.00;103628.44;5049344;28;20417;-61
2022/01/14 03:53:06;;;;;;;43.97;14.30;;;;;;;0.92;100.00;103637.97;5047949;28;20021;-61
2022/01/14 03:55:31;;;;;;;82.77;14.10;;;;;;;0.92;100.00;103632.75;5051693;28;20036;-61
2022/01/14 03:57:56;;;;;;;60.07;14.60;;;;;;;0.87;100.00;103633.69;5050214;28;20025;-61
2022/01/14 04:00:22;;;;;;;63.50;14.70;;;;;;;0.88;100.00;103633.69;5038385;28;20060;-61
2022/01/14 04:02:47;;;;;;;56.73;14.60;;;;;;;0.89;100.00;103643.22;5044090;28;20518;-61
2022/01/14 04:05:14;;;;;;;41.43;14.53;;;;;;;0.89;100.00;103640.63;5050611;28;20049;-61
2022/01/14 04:07:39;;;;;;;58.93;14.73;;;;;;;0.91;100.00;103638.88;5050221;28;20460;-61
2022/01/14 04:10:05;;;;;;;70.00;14.87;;;;;;;0.93;100.00;103642.28;5052707;28;20043;-61
2022/01/14 04:12:47;;;;;;;57.03;13.90;;;;;;;0.90;100.00;103644.94;5059513;28;20025;-60
2022/01/14 04:17:59;;;;;;;62.07;14.00;;;;;;;0.88;100.00;103628.44;5043279;28;20471;-61
2022/01/14 04:20:24;;;;;;;73.07;13.90;;;;;;;0.85;100.00;103625.91;5049584;28;20100;-60
2022/01/14 04:22:49;;;;;;;69.17;13.57;;;;;;;0.85;100.00;103633.75;5048628;28;20029;-61
2022/01/14 04:25:15;;;;;;;87.80;13.80;;;;;;;0.79;100.00;103633.88;5040168;28;20472;-61
2022/01/14 04:27:41;;;;;;;40.17;13.80;;;;;;;0.77;100.00;103633.00;5046631;28;20044;-60
2022/01/14 04:30:07;;;;;;;108.47;15.40;;;;;;;0.76;100.00;103626.06;5051337;28;20399;-61
2022/01/14 04:32:32;;;;;;;68.80;14.57;;;;;;;0.79;100.00;103628.63;5043940;28;20469;-60
2022/01/14 04:34:57;;;;;;;75.87;14.37;;;;;;;0.76;100.00;103626.06;5032673;28;20029;-60
2022/01/14 04:37:23;;;;;;;77.83;14.87;;;;;;;0.76;100.00;103623.47;5040979;28;20030;-61
2022/01/14 04:39:48;;;;;;;63.53;14.90;;;;;;;0.74;100.00;103617.41;5048372;28;20047;-59
2022/01/14 04:42:13;;;;;;;85.07;14.33;;;;;;;0.73;100.00;103615.69;5048909;28;20091;-61
2022/01/14 04:44:38;;;;;;;87.63;14.47;;;;;;;0.73;100.00;103610.47;5048422;28;20047;-60
2022/01/14 04:47:15;;;;;;;68.03;14.83;;;;;;;0.74;100.00;103612.19;5048893;28;20106;-60
2022/01/14 04:49:41;;;;;;;60.00;13.10;;;;;;;0.72;100.00;103600.88;5050800;28;20021;-60
2022/01/14 04:52:07;;;;;;;97.70;14.40;;;;;;;0.71;100.00;103596.56;5047065;28;20075;-60
2022/01/14 04:54:32;;;;;;;72.23;14.40;;;;;;;0.66;100.00;103602.75;5048704;28;20083;-61
2022/01/14 04:56:58;;;;;;;56.53;13.67;;;;;;;0.68;100.00;103601.84;5049147;28;20028;-61
2022/01/14 04:59:23;;;;;;;70.90;13.77;;;;;;;0.66;100.00;103594.03;5041207;28;20043;-61
2022/01/14 05:01:49;;;;;;;82.20;13.60;;;;;;;0.70;100.00;103589.63;5037509;28;20037;-61
2022/01/14 05:04:15;;;;;;;73.97;13.27;;;;;;;0.65;100.00;103581.88;5040023;28;20408;-60
2022/01/14 05:06:43;;;;;;;74.57;13.10;;;;;;;0.65;100.00;103574.88;5043363;28;20025;-60
2022/01/14 05:09:18;;;;;;;102.60;13.47;;;;;;;0.65;100.00;103572.28;5045223;28;20117;-60
2022/01/14 05:11:52;;;;;;;82.57;13.40;;;;;;;0.60;100.00;103576.72;5049139;28;20044;-61
2022/01/14 05:14:17;;;;;;;55.47;13.67;;;;;;;0.62;100.00;103581.91;5048731;28;20025;-60
2022/01/14 05:16:42;;;;;;;93.67;13.80;;;;;;;0.69;100.00;103577.44;5046638;28;20021;-61
2022/01/14 05:19:07;;;;;;;59.33;13.37;;;;;;;0.62;100.00;103581.91;5047640;28;20033;-60
2022/01/14 05:21:33;;;;;;;71.00;14.13;;;;;;;0.66;100.00;103567.91;5049717;28;20061;-61
2022/01/14 05:23:58;;;;;;;61.17;13.77;;;;;;;0.57;100.00;103579.38;5047106;28;20404;-61
2022/01/14 05:26:23;;;;;;;56.30;12.53;;;;;;;0.59;100.00;103575.00;5040078;28;20136;-61
2022/01/14 05:28:48;;;;;;;57.30;12.30;;;;;;;0.60;100.00;103575.88;5040887;28;20029;-60
2022/01/14 05:31:14;;;;;;;75.10;13.27;;;;;;;0.56;100.00;103566.34;5041191;28;20509;-61
2022/01/14 05:33:41;;;;;;;63.80;12.43;;;;;;;0.58;100.00;103581.09;5038047;28;20116;-61
2022/01/14 05:36:06;;;;;;;55.47;13.00;;;;;;;0.56;100.00;103571.56;5031298;28;20451;-61
2022/01/14 05:38:32;;;;;;;61.77;12.33;;;;;;;0.59;100.00;103567.16;5030342;28;20045;-61
2022/01/14 05:40:57;;;;;;;50.37;12.67;;;;;;;0.55;100.00;103570.72;5038168;28;20087;-61
2022/01/14 05:43:22;;;;;;;48.37;13.30;;;;;;;0.55;100.00;103575.97;5045706;28;20037;-61
2022/01/14 05:45:48;;;;;;;49.77;12.07;;;;;;;0.52;100.00;103570.78;5034545;28;20041;-61
2022/01/14 05:48:13;;;;;;;47.93;12.13;;;;;;;0.51;100.00;103566.44;5040794;28;20029;-61
2022/01/14 05:50:38;;;;;;;66.77;11.83;;;;;;;0.46;100.00;103556.09;5043401;28;20044;-61
2022/01/14 05:53:06;;;;;;;45.83;11.90;;;;;;;0.46;100.00;103557.84;5043602;28;20043;-61
2022/01/14 05:55:32;;;;;;;45.07;11.83;;;;;;;0.43;100.00;103550.06;5034444;28;20030;-61
2022/01/14 05:57:57;;;;;;;42.87;12.27;;;;;;;0.46;100.00;103555.22;5030789;28;20426;-60
2022/01/14 06:00:22;;;;;;;47.27;11.57;;;;;;;0.48;100.00;103553.44;5033998;28;20036;-59
2022/01/14 06:02:49;;;;;;;31.97;11.50;;;;;;;0.45;100.00;103563.94;5037399;28;20496;-60
2022/01/14 06:05:15;;;;;;;32.47;12.13;;;;;;;0.48;100.00;103562.13;5037706;28;20067;-60
2022/01/14 06:07:40;;;;;;;43.83;12.20;;;;;;;0.43;100.00;103565.75;5044673;28;20037;-61
2022/01/14 06:10:06;;;;;;;45.47;10.57;;;;;;;0.49;100.00;103565.63;5046374;28;20035;-61
2022/01/14 06:12:32;;;;;;;32.67;12.13;;;;;;;0.37;100.00;103561.47;5048704;28;20222;-61
2022/01/14 06:14:57;;;;;;;31.77;11.63;;;;;;;0.38;100.00;103571.03;5048108;28;20047;-60
2022/01/14 06:17:22;;;;;;;45.20;12.17;;;;;;;0.37;100.00;103567.56;5044597;28;20111;-61
2022/01/14 06:19:47;;;;;;;42.00;11.90;;;;;;;0.37;100.00;103575.41;5043196;28;20068;-61
2022/01/14 06:22:13;;;;;;;50.43;13.00;;;;;;;0.44;100.00;103583.13;5030028;28;20032;-59
2022/01/14 06:24:38;;;;;;;42.03;12.57;;;;;;;0.35;100.00;103573.69;5036153;28;20056;-60
2022/01/14 06:27:03;;;;;;;44.13;12.60;;;;;;;0.35;100.00;103573.69;5034947;28;20384;-61
2022/01/14 06:29:29;;;;;;;51.60;12.70;;;;;;;0.35;100.00;103571.94;5044376;28;20079;-61
2022/01/14 06:31:54;;;;;;;26.93;12.90;;;;;;;0.38;100.00;103584.94;5036184;28;20464;-61
2022/01/14 06:34:19;;;;;;;49.30;12.30;;;;;;;0.36;100.00;103580.63;5044064;28;20144;-62
2022/01/14 06:36:45;;;;;;;43.17;13.13;;;;;;;0.37;100.00;103572.78;5045512;28;20047;-62
2022/01/14 06:39:11;;;;;;;37.40;13.17;;;;;;;0.37;100.00;103572.78;5041485;28;20069;-61
2022/01/14 06:41:37;;;;;;;29.67;12.37;;;;;;;0.39;100.00;103575.34;5043812;28;20040;-58
2022/01/14 06:44:03;;;;;;;58.40;14.23;;;;;;;0.42;100.00;103567.47;5044093;28;20113;-58
2022/01/14 06:46:28;;;;;;;38.77;13.20;;;;;;;0.43;100.00;103565.75;5042502;28;20021;-57
2022/01/14 06:48:54;;;;;;;52.67;12.67;;;;;;;0.44;100.00;103559.63;5042701;28;20107;-58
2022/01/14 06:51:19;;;;;;;49.40;12.60;;;;;;;0.38;100.00;103553.63;5038746;28;20072;-58
2022/01/14 06:53:44;;;;;;;56.73;13.00;;;;;;;0.39;100.00;103557.94;5044673;28;20033;-58
2022/01/14 06:56:11;;;;;;;36.97;13.30;;;;;;;0.36;100.00;103565.84;5045023;28;20083;-58
2022/01/14 06:58:37;;;;;;;44.07;12.97;;;;;;;0.38;100.00;103563.19;5043439;28;20029;-58
2022/01/14 07:01:02;;;;;;;44.80;13.10;;;;;;;0.36;100.00;103554.53;5041940;28;20087;-58
2022/01/14 07:03:27;;;;;;;36.47;13.63;;;;;;;0.37;100.00;103569.31;5038225;28;20055;-58
2022/01/14 07:05:54;;;;;;;34.70;14.73;;;;;;;0.39;100.00;103571.00;5041387;28;20386;-57
2022/01/14 07:08:19;;;;;;;63.83;14.40;;;;;;;0.40;100.00;103577.09;5044753;28;20028;-58
2022/01/14 07:10:44;;;;;;;35.57;14.20;;;;;;;0.38;100.00;103571.03;5037129;28;20139;-58
2022/01/14 07:13:09;;;;;;;67.70;14.27;;;;;;;0.35;100.00;103577.16;5041406;28;20495;-58
2022/01/14 07:15:35;;;;;;;45.50;15.20;;;;;;;0.38;100.00;103579.72;5041266;28;20035;-58
2022/01/14 07:18:00;;;;;;;41.93;14.80;;;;;;;0.36;100.00;103581.50;5042369;28;20365;-57
2022/01/14 07:20:25;;;;;;;61.37;14.57;;;;;;;0.35;100.00;103579.75;5042451;28;20041;-57
2022/01/14 07:22:51;;;;;;;46.40;14.20;;;;;;;0.34;100.00;103587.66;5040625;28;20033;-58
2022/01/14 07:25:16;;;;;;;54.57;14.43;;;;;;;0.32;100.00;103598.09;5045219;28;20385;-57
2022/01/14 07:27:41;;;;;;;77.20;15.60;;;;;;;0.34;100.00;103593.72;5045380;28;20137;-58
2022/01/14 07:30:08;;;;;;;75.63;14.90;;;;;;;0.30;100.00;103581.59;5038465;28;20102;-58
2022/01/14 07:32:34;;;;;;;41.50;15.27;;;;;;;0.34;100.00;103579.81;5039616;28;20188;-57
2022/01/14 07:34:59;;;;;;;62.87;16.00;;;;;;;0.35;100.00;103579.75;5034561;28;20506;-57
2022/01/14 07:37:25;;;;;;;70.47;16.00;;;;;;;0.34;100.00;103583.25;5045329;28;20572;-58
2022/01/14 07:39:50;;;;;;;57.30;15.90;;;;;;;0.30;100.00;103586.81;5045518;28;20159;-57
2022/01/14 07:42:16;;;;;;;50.97;15.40;;;;;;;0.27;100.00;103586.88;5043003;28;20086;-56
2022/01/14 07:44:42;;;;;;;56.70;16.23;;;;;;;0.24;100.00;103589.53;5036226;28;20538;-57
2022/01/14 07:47:07;;;;;;;68.83;16.60;;;;;;;0.22;100.00;103591.31;5043910;28;20055;-61
2022/01/14 07:49:33;;;;;;;48.47;15.67;;;;;;;0.22;100.00;103586.97;5044407;28;20029;-61
2022/01/14 07:51:59;;;;;;;68.93;15.73;;;;;;;0.23;100.00;103579.97;5037297;28;20025;-60
2022/01/14 07:54:24;;;;;;;53.10;17.07;;;;;;;0.22;100.00;103580.88;5038094;28;20442;-61
2022/01/14 07:56:53;;;;;;;47.97;17.20;;;;;;;0.20;100.00;103580.03;5038645;28;20538;-61
2022/01/14 07:59:21;;;;;;;80.43;17.70;;;;;;;0.22;100.00;103578.25;5041075;28;20025;-61
2022/01/14 08:01:48;;;;;;;76.17;17.57;;;;;;;0.23;100.00;103582.59;5042473;28;20482;-61
2022/01/14 08:04:15;;;;;;;52.90;17.17;;;;;;;0.23;100.00;103566.91;5039878;28;20091;-61
2022/01/14 08:06:46;;;;;;;62.17;17.93;;;;;;;0.26;100.00;103574.72;5040918;28;20053;-61
2022/01/14 08:09:13;;;;;;;88.53;17.73;;;;;;;0.26;100.00;103586.00;5040231;28;20075;-61
2022/01/14 08:11:38;;;;;;;67.93;17.03;;;;;;;0.27;100.00;103586.88;5046422;28;20043;-62
2022/01/14 08:14:04;;;;;;;50.83;16.80;;;;;;;0.26;100.00;103591.22;5042714;28;20100;-61
2022/01/14 08:16:29;;;;;;;43.20;16.43;;;;;;;0.30;100.00;103592.03;5038133;28;20029;-61
2022/01/14 08:18:54;;;;;;;53.57;17.07;;;;;;;0.31;100.00;103577.25;5047380;28;20455;-61
2022/01/14 08:21:20;;;;;;;59.93;18.37;;;;;;;0.31;100.00;103575.50;5042822;28;20083;-61
2022/01/14 08:23:45;;;;;;;55.13;16.97;;;;;;;0.35;100.00;103574.53;5040070;28;20108;-61
2022/01/14 08:26:11;;;;;;;73.67;18.43;;;;;;;0.32;100.00;103574.59;5036358;28;20055;-61
2022/01/14 08:28:36;;;;;;;46.80;17.73;;;;;;;0.32;100.00;103579.84;5046234;28;20036;-62
2022/01/14 08:31:02;;;;;;;62.47;17.27;;;;;;;0.33;100.00;103581.53;5048583;28;20029;-61
2022/01/14 08:33:27;;;;;;;58.00;18.97;;;;;;;0.34;100.00;103578.03;5050349;28;20028;-61
2022/01/14 08:35:52;;;;;;;93.90;18.70;;;;;;;0.44;99.95;103567.44;5049142;28;20032;-61
2022/01/14 08:38:18;;;;;;;68.00;18.20;;;;;;;0.33;100.00;103571.09;5048678;28;20025;-61
2022/01/14 08:40:44;;;;;;;60.53;17.53;;;;;;;0.30;100.00;103571.16;5049039;28;20037;-61
2022/01/14 08:43:09;;;;;;;68.80;18.77;;;;;;;0.31;100.00;103562.44;5045580;28;20112;-61
2022/01/14 08:45:35;;;;;;;123.57;19.60;;;;;;;0.29;100.00;103595.53;5044424;28;20037;-61
2022/01/14 08:48:00;;;;;;;63.17;18.40;;;;;;;0.29;100.00;103598.13;5040258;28;20033;-61
2022/01/14 08:50:34;;;;;;;62.87;19.83;;;;;;;0.33;100.00;103597.22;5043927;28;20037;-61
2022/01/14 08:52:59;;;;;;;;;;;;;;;0.43;100.00;103604.91;5046976;28;20445;-61
2022/01/14 08:55:25;;;;;;;62.47;18.60;;;;;;;0.40;100.00;103590.16;5049120;28;20011;-60
2022/01/14 08:57:50;;;;;;;56.00;19.37;;;;;;;0.45;100.00;103570.00;5043718;28;20068;-61
2022/01/14 09:00:18;;;;;;;64.20;18.77;;;;;;;0.50;100.00;103572.56;5044974;28;20033;-61
2022/01/14 09:02:43;;;;;;;58.43;18.93;;;;;;;0.52;100.00;103570.78;5042955;28;20070;-61
2022/01/14 09:05:10;;;;;;;60.73;19.07;;;;;;;0.55;100.00;103570.72;5041348;28;20056;-61
2022/01/14 09:07:36;;;;;;;80.73;20.63;;;;;;;0.56;100.00;103572.44;5051969;28;20025;-61
2022/01/14 09:10:02;;;;;;;67.87;19.90;;;;;;;0.58;100.00;103570.66;5045048;28;20040;-61
2022/01/14 09:12:27;;;;;;;69.50;19.07;;;;;;;0.59;100.00;103572.38;5050250;28;20033;-61
2022/01/14 09:14:52;;;;;;;76.53;19.93;;;;;;;0.64;100.00;103583.59;5048772;28;20086;-61
2022/01/14 09:17:18;;;;;;;70.33;20.10;;;;;;;0.60;100.00;103581.09;5048805;28;20392;-61
2022/01/14 09:19:44;;;;;;;75.93;20.47;;;;;;;0.57;100.00;103582.00;5048205;28;20067;-61
2022/01/14 09:22:15;;;;;;;60.37;21.80;;;;;;;0.60;100.00;103579.31;5043981;28;20025;-61
2022/01/14 09:24:41;;;;;;;58.47;21.27;;;;;;;0.62;100.00;103582.78;5046118;28;20029;-61
2022/01/14 09:27:06;;;;;;;63.73;21.87;;;;;;;0.68;100.00;103568.75;5042050;28;20083;-61
2022/01/14 09:29:31;;;;;;;88.87;22.23;;;;;;;0.70;100.00;103585.25;5045069;28;20400;-62
2022/01/14 09:31:57;;;;;;;63.70;21.63;;;;;;;0.72;100.00;103582.59;5048519;28;20103;-61
2022/01/14 09:34:22;;;;;;;68.70;22.50;;;;;;;0.73;100.00;103579.13;5048636;28;20025;-61
2022/01/14 09:36:47;;;;;;;74.90;22.23;;;;;;;0.78;100.00;103583.34;5049598;28;20029;-61
2022/01/14 09:39:12;;;;;;;69.00;22.40;;;;;;;0.81;100.00;103577.22;5047049;28;20033;-61
2022/01/14 09:41:38;;;;;;;53.43;22.53;;;;;;;0.78;100.00;103577.25;5050551;28;21416;-59
2022/01/14 09:44:04;;;;;;;75.00;23.50;;;;;;;0.80;100.00;103585.94;5047561;28;20048;-60
2022/01/14 09:46:30;;;;;;;54.43;22.93;;;;;;;0.87;100.00;103587.53;5047378;28;20039;-59
2022/01/14 09:48:55;;;;;;;56.37;24.40;;;;;;;0.90;100.00;103587.47;5054175;28;20029;-60
2022/01/14 09:51:21;;;;;;;70.73;24.07;;;;;;;0.96;100.00;103590.84;5054789;28;20036;-60
2022/01/14 09:53:47;;;;;;;50.77;24.40;;;;;;;0.98;100.00;103599.53;5051487;28;20029;-59
2022/01/14 09:56:23;;;;;;;67.03;22.10;;;;;;;1.07;100.00;103596.72;5047538;28;20124;-59
2022/01/14 09:58:49;;;;;;;110.47;23.30;;;;;;;0.97;100.00;103603.03;5049711;28;20086;-59
2022/01/14 10:01:21;;;;;;;69.83;23.23;;;;;;;0.93;100.00;103603.09;5050370;28;20067;-58
2022/01/14 10:03:48;;;;;;;69.77;22.43;;;;;;;0.96;100.00;103602.19;5053326;28;20060;-60
2022/01/14 10:06:34;;;;;;;73.73;23.00;;;;;;;0.93;100.00;103608.31;5048940;28;20476;-60
2022/01/14 10:09:05;;;;;;;75.80;22.13;;;;;;;0.89;100.00;103597.97;5037866;28;20439;-60
2022/01/14 10:11:30;;;;;;;95.03;22.13;;;;;;;0.87;100.00;103621.50;5040187;28;20129;-60
2022/01/14 10:14:11;;;;;;;49.50;22.43;;;;;;;0.85;100.00;103605.00;5053173;28;20505;-60
2022/01/14 10:16:40;;;;;;;66.80;22.87;;;;;;;0.93;100.00;103617.91;5040632;28;20084;-60
2022/01/14 10:19:17;;;;;;;72.40;23.40;;;;;;;1.01;100.00;103615.16;5043358;28;20091;-61
2022/01/14 10:21:42;;;;;;;72.37;22.10;;;;;;;0.97;100.00;103618.72;5043375;28;20484;-61
2022/01/14 10:24:10;;;;;;;55.73;22.27;;;;;;;0.96;100.00;103606.53;5041716;28;20332;-62
2022/01/14 10:26:48;;;;;;;43.90;22.00;;;;;;;1.12;100.00;103613.19;5040308;28;20039;-61
2022/01/14 10:29:14;;;;;;;46.40;21.60;;;;;;;1.13;100.00;103609.69;5042847;28;20033;-59
2022/01/14 10:31:42;;;;;;;44.43;21.13;;;;;;;1.17;100.00;103611.34;5043808;28;20048;-59
2022/01/14 10:34:15;;;;;;;43.57;21.97;;;;;;;1.22;100.00;103618.25;5038624;28;20024;-59
2022/01/14 10:36:43;;;;;;;62.17;23.27;;;;;;;1.24;100.00;103606.00;5040098;28;20455;-60
2022/01/14 10:39:24;;;;;;;43.13;23.80;;;;;;;1.29;100.00;103606.78;5043358;28;20488;-59
2022/01/14 10:41:52;;;;;;;48.63;23.37;;;;;;;1.30;100.00;103600.63;5042579;28;20033;-59
2022/01/14 10:44:23;;;;;;;51.67;23.87;;;;;;;1.37;100.00;103607.44;5039908;28;20039;-59
2022/01/14 10:46:49;;;;;;;45.93;22.40;;;;;;;1.41;100.00;103596.03;5039953;28;20676;-59
2022/01/14 10:49:31;;;;;;;43.43;24.03;;;;;;;1.43;100.00;103596.88;5044690;28;20041;-59
2022/01/14 10:52:18;;;;;;;38.05;23.00;;;;;;;1.51;100.00;103593.22;5038259;28;20034;-60
2022/01/14 10:54:47;;;;;;;41.17;23.43;;;;;;;1.47;100.00;103598.53;5038400;28;20109;-59
2022/01/14 10:57:19;;;;;;;42.90;23.60;;;;;;;1.47;100.00;103595.03;5035702;28;20021;-59
2022/01/14 10:59:46;;;;;;;43.33;23.90;;;;;;;1.52;100.00;103587.97;5032839;28;20041;-59
2022/01/14 11:02:31;;;;;;;39.90;23.30;;;;;;;1.59;100.00;103596.53;5033303;28;20021;-60
2022/01/14 11:05:23;;;;;;;38.40;22.90;;;;;;;1.61;100.00;103592.13;5036431;28;20045;-61
2022/01/14 11:07:51;;;;;;;41.37;23.10;;;;;;;1.57;100.00;103586.09;5031046;28;20041;-62
2022/01/14 11:10:25;;;;;;;41.67;23.70;;;;;;;1.60;100.00;103577.34;5042635;28;20033;-62
2022/01/14 11:12:56;;;;;;;41.17;23.10;;;;;;;1.68;100.00;103585.84;5037045;28;20533;-62
2022/01/14 11:15:23;;;;;;;38.03;22.60;;;;;;;1.69;100.00;103587.59;5038943;28;20594;-62
2022/01/14 11:17:51;;;;;;;39.83;23.27;;;;;;;1.73;100.00;103573.53;5032257;28;20164;-62
2022/01/14 11:20:29;;;;;;;45.37;25.43;;;;;;;1.76;100.00;103577.84;5040078;28;20029;-62
2022/01/14 11:23:14;;;;;;;43.53;24.83;;;;;;;1.79;100.00;103574.28;5039828;28;20090;-62
2022/01/14 11:26:05;;;;;;;46.07;26.27;;;;;;;1.84;100.00;103570.69;5037433;28;20029;-62
2022/01/14 11:28:33;;;;;;;45.80;25.97;;;;;;;1.86;100.00;103568.00;5036185;28;20509;-62